createdAt,value
2022-11-24T00:00:20.696Z,43.55
2022-11-24T00:00:52.604Z,43.53
2022-11-24T00:01:29.531Z,42.58
2022-11-24T00:02:01.246Z,45.47
2022-11-24T00:02:32.919Z,42.90
2022-11-24T00:03:05.745Z,44.67
2022-11-24T00:03:37.819Z,42.08
2022-11-24T00:04:11.633Z,42.70
2022-11-24T00:04:43.136Z,43.00
2022-11-24T00:05:14.762Z,43.15
2022-11-24T00:05:46.297Z,44.83
2022-11-24T00:06:17.858Z,42.83
2022-11-24T00:06:49.375Z,43.88
2022-11-24T00:07:20.974Z,40.85
2022-11-24T00:07:52.618Z,41.97
2022-11-24T00:08:24.180Z,44.67
2022-11-24T00:08:56.753Z,47.85
2022-11-24T00:09:28.254Z,42.78
2022-11-24T00:09:59.749Z,43.58
2022-11-24T00:10:31.266Z,44.35
2022-11-24T00:11:12.059Z,45.22
2022-11-24T00:11:43.600Z,41.80
2022-11-24T00:12:15.109Z,43.33
2022-11-24T00:12:46.618Z,45.15
2022-11-24T00:13:18.129Z,45.67
2022-11-24T00:13:50.500Z,46.95
2022-11-24T00:14:22.125Z,42.95
2022-11-24T00:14:53.630Z,45.63
2022-11-24T00:15:25.286Z,44.88
2022-11-24T00:16:05.052Z,42.80
2022-11-24T00:16:38.098Z,45.35
2022-11-24T00:17:09.716Z,44.35
2022-11-24T00:17:41.275Z,49.03
2022-11-24T00:18:12.795Z,43.38
2022-11-24T00:18:47.562Z,43.95
2022-11-24T00:19:19.847Z,44.53
2022-11-24T00:19:51.599Z,44.58
2022-11-24T00:20:23.109Z,47.20
2022-11-24T00:20:54.659Z,46.22
2022-11-24T00:21:27.613Z,56.63
2022-11-24T00:21:59.193Z,59.63
2022-11-24T00:22:30.865Z,55.75
2022-11-24T00:23:02.404Z,65.70
2022-11-24T00:23:34.868Z,63.03
2022-11-24T00:24:06.894Z,67.50
2022-11-24T00:24:38.469Z,62.13
2022-11-24T00:25:10.055Z,58.38
2022-11-24T00:25:41.580Z,58.67
2022-11-24T00:26:15.930Z,55.90
2022-11-24T00:26:47.469Z,51.67
2022-11-24T00:27:19.059Z,54.70
2022-11-24T00:27:50.567Z,56.45
2022-11-24T00:28:22.075Z,56.42
2022-11-24T00:28:58.536Z,57.55
2022-11-24T00:29:30.033Z,57.22
2022-11-24T00:30:01.612Z,49.85
2022-11-24T00:30:34.068Z,53.03
2022-11-24T00:31:23.853Z,54.63
2022-11-24T00:31:56.550Z,49.78
2022-11-24T00:32:29.544Z,53.60
2022-11-24T00:33:01.071Z,59.08
2022-11-24T00:33:32.740Z,57.72
2022-11-24T00:34:07.403Z,53.17
2022-11-24T00:34:39.003Z,55.42
2022-11-24T00:35:10.583Z,55.75
2022-11-24T00:35:42.115Z,51.30
2022-11-24T00:36:14.490Z,50.70
2022-11-24T00:36:46.012Z,51.75
2022-11-24T00:37:17.521Z,48.10
2022-11-24T00:37:49.058Z,51.13
2022-11-24T00:38:20.590Z,47.92
2022-11-24T00:38:57.479Z,52.00
2022-11-24T00:39:29.013Z,49.08
2022-11-24T00:40:00.526Z,51.90
2022-11-24T00:40:34.953Z,56.28
2022-11-24T00:41:06.959Z,55.85
2022-11-24T00:41:38.911Z,57.22
2022-11-24T00:42:10.438Z,56.55
2022-11-24T00:42:41.979Z,57.75
2022-11-24T00:43:13.576Z,59.83
2022-11-24T00:43:45.097Z,65.18
2022-11-24T00:44:16.699Z,64.75
2022-11-24T00:44:48.196Z,64.30
2022-11-24T00:45:19.712Z,71.90
2022-11-24T00:45:51.395Z,71.57
2022-11-24T00:46:24.060Z,67.57
2022-11-24T00:46:55.726Z,73.45
2022-11-24T00:47:28.796Z,77.03
2022-11-24T00:48:00.322Z,78.85
2022-11-24T00:48:31.896Z,70.03
2022-11-24T00:49:03.683Z,67.65
2022-11-24T00:49:36.322Z,68.93
2022-11-24T00:50:08.225Z,66.78
2022-11-24T00:50:39.949Z,59.58
2022-11-24T00:51:13.420Z,63.30
2022-11-24T00:51:44.969Z,62.30
2022-11-24T00:52:16.562Z,57.25
2022-11-24T00:52:48.064Z,62.38
2022-11-24T00:53:19.591Z,58.88
2022-11-24T00:53:51.293Z,65.30
2022-11-24T00:54:23.069Z,60.85
2022-11-24T00:54:54.610Z,59.70
2022-11-24T00:55:26.213Z,64.18
2022-11-24T00:55:57.888Z,60.78
2022-11-24T00:56:29.815Z,62.53
2022-11-24T00:57:01.360Z,61.17
2022-11-24T00:57:35.130Z,58.92
2022-11-24T00:58:06.635Z,61.20
2022-11-24T00:58:38.488Z,57.30
2022-11-24T00:59:10.098Z,65.28
2022-11-24T00:59:41.618Z,64.15
2022-11-24T01:00:14.024Z,59.67
2022-11-24T01:00:45.544Z,59.88
2022-11-24T01:01:19.968Z,62.05
2022-11-24T01:01:51.660Z,60.90
2022-11-24T01:02:23.262Z,63.60
2022-11-24T01:02:54.841Z,63.88
2022-11-24T01:03:26.449Z,68.72
2022-11-24T01:04:01.352Z,64.30
2022-11-24T01:04:33.088Z,68.38
2022-11-24T01:05:05.276Z,61.85
2022-11-24T01:05:37.558Z,59.53
2022-11-24T01:06:14.617Z,62.63
2022-11-24T01:06:46.128Z,67.18
2022-11-24T01:07:17.739Z,66.70
2022-11-24T01:07:49.410Z,66.18
2022-11-24T01:08:20.994Z,62.67
2022-11-24T01:08:52.677Z,63.05
2022-11-24T01:09:24.296Z,62.17
2022-11-24T01:09:55.838Z,63.13
2022-11-24T01:10:27.397Z,59.72
2022-11-24T01:11:17.041Z,61.13
2022-11-24T01:12:04.212Z,60.80
2022-11-24T01:12:35.890Z,62.17
2022-11-24T01:13:07.479Z,58.50
2022-11-24T01:13:39.797Z,57.17
2022-11-24T01:14:11.310Z,58.38
2022-11-24T01:14:42.900Z,62.63
2022-11-24T01:15:14.469Z,56.58
2022-11-24T01:15:46.106Z,60.20
2022-11-24T01:16:29.540Z,61.83
2022-11-24T01:17:01.111Z,61.25
2022-11-24T01:17:32.636Z,56.53
2022-11-24T01:18:04.629Z,55.65
2022-11-24T01:18:36.161Z,58.08
2022-11-24T01:19:07.710Z,58.95
2022-11-24T01:19:39.221Z,56.85
2022-11-24T01:20:11.416Z,58.55
2022-11-24T01:20:42.945Z,58.33
2022-11-24T01:21:15.448Z,61.65
2022-11-24T01:21:47.268Z,59.22
2022-11-24T01:22:18.952Z,56.00
2022-11-24T01:22:50.504Z,55.30
2022-11-24T01:23:22.034Z,62.58
2022-11-24T01:23:53.549Z,58.85
2022-11-24T01:24:25.233Z,59.75
2022-11-24T01:24:56.745Z,59.00
2022-11-24T01:25:28.270Z,55.60
2022-11-24T01:25:59.835Z,58.00
2022-11-24T01:26:31.410Z,59.92
2022-11-24T01:27:02.963Z,61.85
2022-11-24T01:27:34.486Z,59.85
2022-11-24T01:28:05.987Z,58.20
2022-11-24T01:28:40.652Z,56.17
2022-11-24T01:29:16.585Z,57.50
2022-11-24T01:29:48.114Z,58.25
2022-11-24T01:30:19.912Z,56.55
2022-11-24T01:31:01.984Z,53.30
2022-11-24T01:31:33.582Z,55.92
2022-11-24T01:32:05.134Z,58.65
2022-11-24T01:32:37.342Z,57.90
2022-11-24T01:33:08.865Z,52.63
2022-11-24T01:33:40.420Z,59.15
2022-11-24T01:34:13.328Z,61.22
2022-11-24T01:34:44.846Z,54.58
2022-11-24T01:35:16.433Z,53.97
2022-11-24T01:35:47.949Z,56.10
2022-11-24T01:36:19.964Z,54.47
2022-11-24T01:36:51.481Z,55.67
2022-11-24T01:37:22.976Z,54.47
2022-11-24T01:37:54.500Z,60.80
2022-11-24T01:38:27.041Z,57.33
2022-11-24T01:38:58.554Z,56.65
2022-11-24T01:39:30.128Z,51.85
2022-11-24T01:40:01.700Z,54.85
2022-11-24T01:40:33.211Z,51.38
2022-11-24T01:41:08.772Z,57.75
2022-11-24T01:41:40.352Z,55.03
2022-11-24T01:42:11.916Z,54.85
2022-11-24T01:42:48.119Z,57.15
2022-11-24T01:43:21.535Z,53.40
2022-11-24T01:43:55.220Z,52.45
2022-11-24T01:44:29.202Z,55.38
2022-11-24T01:45:31.924Z,51.92
2022-11-24T01:46:28.388Z,50.58
2022-11-24T01:47:08.038Z,52.28
2022-11-24T01:47:43.636Z,56.65
2022-11-24T01:48:27.467Z,53.85
2022-11-24T01:49:08.868Z,52.25
2022-11-24T01:49:50.642Z,49.33
2022-11-24T01:50:22.913Z,51.70
2022-11-24T01:51:03.946Z,56.40
2022-11-24T01:51:46.460Z,60.83
2022-11-24T01:52:26.980Z,51.60
2022-11-24T01:52:58.587Z,51.58
2022-11-24T01:53:30.658Z,51.15
2022-11-24T01:54:07.858Z,53.40
2022-11-24T01:54:46.049Z,54.17
2022-11-24T01:55:25.637Z,49.90
2022-11-24T01:55:58.092Z,58.33
2022-11-24T01:56:30.894Z,57.08
2022-11-24T01:57:29.843Z,54.50
2022-11-24T01:58:18.528Z,52.92
2022-11-24T01:58:52.258Z,52.65
2022-11-24T01:59:25.375Z,54.25
2022-11-24T02:00:02.007Z,53.03
2022-11-24T02:01:13.801Z,48.90
2022-11-24T02:01:46.964Z,56.10
2022-11-24T02:02:19.584Z,54.58
2022-11-24T02:02:51.300Z,50.40
2022-11-24T02:03:28.169Z,50.40
2022-11-24T02:04:04.398Z,49.50
2022-11-24T02:04:37.076Z,49.00
2022-11-24T02:05:20.079Z,49.08
2022-11-24T02:06:04.905Z,49.40
2022-11-24T02:06:38.921Z,54.28
2022-11-24T02:07:12.617Z,49.70
2022-11-24T02:07:45.003Z,46.72
2022-11-24T02:08:43.928Z,49.00
2022-11-24T02:09:32.655Z,48.50
2022-11-24T02:10:10.797Z,46.78
2022-11-24T02:10:44.008Z,49.20
2022-11-24T02:11:15.649Z,49.95
2022-11-24T02:11:47.287Z,48.05
2022-11-24T02:12:18.874Z,47.78
2022-11-24T02:12:52.202Z,48.70
2022-11-24T02:13:24.971Z,51.10
2022-11-24T02:13:57.471Z,54.85
2022-11-24T02:14:29.187Z,46.78
2022-11-24T02:15:01.196Z,53.47
2022-11-24T02:15:34.470Z,49.25
2022-11-24T02:16:09.018Z,49.67
2022-11-24T02:16:42.802Z,47.80
2022-11-24T02:17:14.449Z,53.47
2022-11-24T02:17:46.027Z,50.63
2022-11-24T02:18:17.548Z,51.53
2022-11-24T02:18:49.147Z,48.28
2022-11-24T02:19:33.685Z,52.45
2022-11-24T02:20:08.566Z,46.80
2022-11-24T02:20:40.139Z,53.15
2022-11-24T02:21:14.713Z,54.00
2022-11-24T02:21:46.333Z,51.08
2022-11-24T02:22:25.936Z,53.80
2022-11-24T02:23:05.371Z,45.35
2022-11-24T02:24:00.560Z,54.13
2022-11-24T02:24:47.270Z,50.03
2022-11-24T02:25:56.107Z,48.28
2022-11-24T02:26:46.948Z,54.47
2022-11-24T02:27:19.340Z,50.80
2022-11-24T02:27:54.083Z,55.20
2022-11-24T02:28:29.671Z,49.28
2022-11-24T02:29:02.109Z,55.30
2022-11-24T02:29:33.914Z,52.45
2022-11-24T02:30:05.791Z,60.65
2022-11-24T02:30:37.549Z,55.35
2022-11-24T02:31:09.219Z,51.33
2022-11-24T02:31:51.249Z,52.83
2022-11-24T02:32:23.383Z,51.17
2022-11-24T02:32:55.053Z,53.95
2022-11-24T02:33:27.101Z,55.15
2022-11-24T02:33:58.739Z,55.22
2022-11-24T02:34:30.314Z,55.40
2022-11-24T02:35:05.075Z,51.38
2022-11-24T02:35:36.635Z,55.72
2022-11-24T02:36:08.237Z,57.28
2022-11-24T02:36:39.782Z,50.40
2022-11-24T02:37:11.372Z,55.20
2022-11-24T02:37:42.918Z,55.22
2022-11-24T02:38:14.490Z,55.20
2022-11-24T02:38:45.999Z,54.38
2022-11-24T02:39:17.608Z,59.15
2022-11-24T02:39:49.154Z,53.38
2022-11-24T02:40:25.636Z,55.70
2022-11-24T02:40:59.327Z,60.85
2022-11-24T02:41:31.073Z,58.75
2022-11-24T02:42:08.116Z,58.60
2022-11-24T02:42:44.348Z,49.88
2022-11-24T02:43:21.859Z,53.45
2022-11-24T02:43:56.535Z,54.80
2022-11-24T02:44:32.812Z,55.15
2022-11-24T02:45:05.047Z,56.75
2022-11-24T02:45:36.583Z,53.65
2022-11-24T02:46:09.304Z,53.97
2022-11-24T02:46:41.091Z,60.75
2022-11-24T02:47:13.611Z,57.05
2022-11-24T02:47:46.015Z,58.88
2022-11-24T02:48:17.641Z,56.60
2022-11-24T02:48:49.259Z,54.83
2022-11-24T02:49:20.782Z,55.78
2022-11-24T02:49:52.346Z,55.63
2022-11-24T02:50:24.010Z,56.88
2022-11-24T02:50:55.526Z,53.70
2022-11-24T02:51:27.989Z,57.17
2022-11-24T02:51:59.704Z,49.42
2022-11-24T02:52:31.539Z,53.28
2022-11-24T02:53:03.080Z,52.13
2022-11-24T02:53:34.789Z,54.58
2022-11-24T02:54:06.314Z,59.35
2022-11-24T02:54:37.846Z,58.75
2022-11-24T02:55:09.740Z,52.88
2022-11-24T02:55:41.315Z,55.25
2022-11-24T02:56:12.991Z,53.47
2022-11-24T02:56:44.499Z,55.42
2022-11-24T02:57:16.030Z,55.03
2022-11-24T02:57:47.547Z,57.33
2022-11-24T02:58:19.094Z,53.30
2022-11-24T02:58:50.593Z,53.47
2022-11-24T02:59:22.481Z,57.85
2022-11-24T02:59:54.016Z,56.58
2022-11-24T03:00:25.547Z,55.58
2022-11-24T03:00:57.979Z,59.25
2022-11-24T03:01:29.563Z,52.42
2022-11-24T03:02:01.217Z,51.22
2022-11-24T03:02:32.839Z,56.40
2022-11-24T03:03:04.558Z,53.38
2022-11-24T03:03:36.343Z,54.63
2022-11-24T03:04:07.965Z,59.17
2022-11-24T03:04:39.518Z,58.25
2022-11-24T03:05:12.084Z,56.53
2022-11-24T03:05:43.613Z,57.90
2022-11-24T03:06:15.148Z,54.25
2022-11-24T03:06:46.710Z,60.28
2022-11-24T03:07:18.401Z,57.47
2022-11-24T03:07:49.990Z,61.75
2022-11-24T03:08:21.618Z,59.00
2022-11-24T03:08:53.163Z,58.55
2022-11-24T03:09:24.677Z,61.13
2022-11-24T03:09:56.236Z,62.15
2022-11-24T03:10:28.496Z,58.10
2022-11-24T03:11:01.701Z,58.63
2022-11-24T03:11:33.236Z,58.53
2022-11-24T03:12:04.885Z,59.95
2022-11-24T03:12:36.483Z,59.08
2022-11-24T03:13:08.266Z,60.33
2022-11-24T03:13:39.779Z,56.28
2022-11-24T03:14:11.355Z,57.05
2022-11-24T03:14:42.864Z,54.92
2022-11-24T03:15:14.435Z,55.03
2022-11-24T03:15:46.137Z,58.40
2022-11-24T03:16:17.781Z,59.80
2022-11-24T03:16:49.361Z,57.60
2022-11-24T03:17:20.891Z,61.03
2022-11-24T03:17:56.743Z,59.08
2022-11-24T03:18:28.295Z,56.83
2022-11-24T03:19:00.469Z,53.00
2022-11-24T03:19:33.013Z,53.28
2022-11-24T03:20:05.471Z,54.63
2022-11-24T03:20:37.253Z,57.28
2022-11-24T03:21:09.135Z,56.45
2022-11-24T03:21:40.657Z,58.15
2022-11-24T03:22:14.761Z,55.47
2022-11-24T03:22:46.309Z,55.78
2022-11-24T03:23:17.866Z,53.00
2022-11-24T03:23:49.412Z,53.55
2022-11-24T03:24:21.127Z,53.45
2022-11-24T03:24:53.280Z,55.45
2022-11-24T03:25:24.802Z,50.83
2022-11-24T03:26:07.250Z,50.38
2022-11-24T03:26:38.775Z,50.78
2022-11-24T03:27:10.319Z,51.53
2022-11-24T03:27:41.913Z,49.75
2022-11-24T03:28:13.417Z,55.10
2022-11-24T03:28:45.207Z,50.35
2022-11-24T03:29:16.949Z,51.08
2022-11-24T03:29:48.477Z,52.40
2022-11-24T03:30:20.122Z,49.80
2022-11-24T03:30:51.707Z,51.28
2022-11-24T03:31:24.280Z,51.08
2022-11-24T03:31:55.865Z,48.35
2022-11-24T03:32:27.449Z,56.65
2022-11-24T03:32:59.007Z,49.42
2022-11-24T03:33:30.601Z,53.05
2022-11-24T03:34:02.231Z,53.30
2022-11-24T03:34:33.929Z,49.97
2022-11-24T03:35:06.117Z,50.50
2022-11-24T03:35:37.622Z,49.42
2022-11-24T03:36:09.635Z,52.00
2022-11-24T03:36:41.156Z,49.13
2022-11-24T03:37:12.692Z,54.15
2022-11-24T03:37:44.228Z,49.42
2022-11-24T03:38:15.724Z,49.70
2022-11-24T03:38:47.325Z,49.33
2022-11-24T03:39:18.833Z,53.45
2022-11-24T03:39:50.359Z,51.20
2022-11-24T03:40:21.868Z,52.60
2022-11-24T03:40:53.421Z,52.30
2022-11-24T03:41:24.926Z,50.53
2022-11-24T03:41:56.464Z,48.47
2022-11-24T03:42:28.208Z,52.47
2022-11-24T03:42:59.704Z,51.88
2022-11-24T03:43:32.021Z,53.63
2022-11-24T03:44:03.683Z,48.55
2022-11-24T03:44:35.440Z,51.53
2022-11-24T03:45:44.726Z,56.35
2022-11-24T03:45:59.116Z,53.58
2022-11-24T03:46:30.734Z,53.70
2022-11-24T03:47:02.376Z,51.17
2022-11-24T03:47:33.889Z,55.47
2022-11-24T03:48:06.364Z,50.67
2022-11-24T03:48:37.942Z,56.50
2022-11-24T03:49:09.994Z,50.45
2022-11-24T03:49:41.567Z,54.47
2022-11-24T03:50:13.076Z,55.55
2022-11-24T03:50:52.836Z,57.53
2022-11-24T03:51:24.378Z,55.42
2022-11-24T03:51:55.912Z,57.72
2022-11-24T03:52:27.474Z,56.45
2022-11-24T03:52:58.987Z,57.80
2022-11-24T03:53:32.124Z,57.58
2022-11-24T03:54:03.752Z,55.50
2022-11-24T03:54:35.712Z,53.75
2022-11-24T03:55:07.709Z,53.42
2022-11-24T03:55:39.231Z,55.63
2022-11-24T03:56:10.769Z,59.53
2022-11-24T03:56:42.773Z,53.20
2022-11-24T03:57:14.502Z,57.90
2022-11-24T03:57:46.108Z,55.85
2022-11-24T03:58:17.855Z,57.17
2022-11-24T03:58:50.046Z,55.67
2022-11-24T03:59:21.774Z,53.63
2022-11-24T03:59:53.285Z,59.08
2022-11-24T04:00:24.817Z,54.85
2022-11-24T04:00:57.115Z,55.53
2022-11-24T04:01:28.704Z,61.67
2022-11-24T04:02:00.387Z,60.63
2022-11-24T04:02:31.993Z,56.97
2022-11-24T04:03:03.716Z,55.92
2022-11-24T04:03:35.279Z,59.40
2022-11-24T04:04:06.820Z,56.28
2022-11-24T04:04:38.330Z,58.08
2022-11-24T04:05:10.314Z,54.70
2022-11-24T04:05:41.843Z,56.85
2022-11-24T04:06:13.362Z,61.35
2022-11-24T04:06:44.889Z,62.78
2022-11-24T04:07:17.139Z,60.47
2022-11-24T04:07:48.757Z,60.70
2022-11-24T04:08:20.684Z,59.58
2022-11-24T04:08:52.331Z,58.65
2022-11-24T04:09:23.882Z,59.25
2022-11-24T04:09:55.373Z,61.88
2022-11-24T04:10:26.949Z,59.40
2022-11-24T04:10:59.122Z,59.75
2022-11-24T04:11:49.172Z,59.70
2022-11-24T04:12:38.832Z,58.83
2022-11-24T04:13:13.464Z,56.10
2022-11-24T04:13:47.420Z,54.70
2022-11-24T04:14:19.458Z,60.42
2022-11-24T04:14:51.205Z,59.53
2022-11-24T04:15:22.744Z,56.33
2022-11-24T04:15:54.629Z,62.10
2022-11-24T04:16:26.431Z,58.13
2022-11-24T04:16:58.109Z,62.72
2022-11-24T04:17:29.641Z,60.38
2022-11-24T04:18:01.176Z,63.97
2022-11-24T04:18:32.729Z,61.63
2022-11-24T04:19:04.404Z,57.65
2022-11-24T04:19:35.910Z,61.70
2022-11-24T04:20:08.471Z,62.17
2022-11-24T04:20:41.044Z,60.92
2022-11-24T04:21:12.569Z,62.58
2022-11-24T04:21:44.085Z,60.55
2022-11-24T04:22:15.600Z,54.72
2022-11-24T04:22:47.170Z,61.33
2022-11-24T04:23:19.264Z,64.43
2022-11-24T04:23:50.793Z,59.35
2022-11-24T04:24:22.372Z,61.38
2022-11-24T04:24:53.933Z,61.22
2022-11-24T04:25:25.493Z,61.53
2022-11-24T04:25:56.997Z,59.10
2022-11-24T04:26:28.553Z,59.67
2022-11-24T04:27:00.081Z,59.60
2022-11-24T04:27:35.006Z,57.55
2022-11-24T04:28:06.587Z,61.08
2022-11-24T04:28:38.537Z,59.38
2022-11-24T04:29:10.153Z,63.20
2022-11-24T04:29:41.755Z,59.55
2022-11-24T04:30:13.325Z,63.40
2022-11-24T04:30:45.257Z,64.53
2022-11-24T04:31:17.062Z,61.10
2022-11-24T04:31:48.633Z,61.78
2022-11-24T04:32:20.545Z,58.88
2022-11-24T04:32:52.184Z,57.60
2022-11-24T04:33:23.926Z,63.78
2022-11-24T04:33:55.417Z,56.47
2022-11-24T04:34:26.965Z,54.97
2022-11-24T04:34:58.500Z,62.42
2022-11-24T04:35:30.268Z,57.35
2022-11-24T04:36:01.801Z,61.65
2022-11-24T04:36:33.346Z,58.53
2022-11-24T04:37:05.290Z,65.50
2022-11-24T04:37:36.915Z,58.55
2022-11-24T04:38:08.637Z,58.85
2022-11-24T04:39:23.289Z,57.22
2022-11-24T04:39:31.670Z,60.65
2022-11-24T04:40:04.973Z,54.70
2022-11-24T04:40:37.349Z,57.58
2022-11-24T04:41:09.261Z,57.28
2022-11-24T04:41:40.768Z,59.30
2022-11-24T04:42:13.174Z,60.25
2022-11-24T04:42:51.742Z,59.90
2022-11-24T04:43:23.275Z,60.05
2022-11-24T04:43:54.827Z,62.45
2022-11-24T04:44:26.923Z,59.13
2022-11-24T04:44:58.426Z,59.83
2022-11-24T04:45:29.968Z,57.20
2022-11-24T04:46:01.995Z,54.15
2022-11-24T04:46:33.593Z,59.33
2022-11-24T04:47:05.420Z,58.42
2022-11-24T04:47:37.067Z,59.65
2022-11-24T04:48:08.581Z,58.97
2022-11-24T04:48:40.080Z,57.17
2022-11-24T04:49:11.801Z,60.92
2022-11-24T04:49:43.389Z,56.22
2022-11-24T04:50:15.007Z,55.95
2022-11-24T04:50:46.551Z,61.05
2022-11-24T04:51:18.066Z,58.08
2022-11-24T04:51:49.790Z,54.50
2022-11-24T04:52:22.954Z,56.17
2022-11-24T04:52:54.463Z,59.22
2022-11-24T04:53:25.984Z,60.80
2022-11-24T04:53:57.496Z,56.90
2022-11-24T04:54:29.000Z,54.30
2022-11-24T04:55:00.556Z,54.15
2022-11-24T04:55:32.060Z,59.08
2022-11-24T04:56:07.093Z,56.50
2022-11-24T04:56:39.595Z,55.63
2022-11-24T04:57:23.128Z,53.17
2022-11-24T04:57:54.665Z,59.15
2022-11-24T04:58:26.163Z,58.00
2022-11-24T04:58:57.733Z,58.92
2022-11-24T04:59:29.317Z,57.17
2022-11-24T05:00:00.822Z,57.40
2022-11-24T05:00:32.334Z,53.45
2022-11-24T05:01:07.219Z,54.28
2022-11-24T05:01:38.795Z,55.78
2022-11-24T05:02:10.700Z,56.90
2022-11-24T05:02:42.434Z,55.30
2022-11-24T05:03:13.957Z,55.35
2022-11-24T05:03:45.533Z,55.42
2022-11-24T05:04:17.315Z,56.60
2022-11-24T05:04:49.061Z,55.85
2022-11-24T05:05:20.598Z,61.10
2022-11-24T05:05:52.108Z,55.28
2022-11-24T05:06:23.783Z,53.63
2022-11-24T05:06:55.286Z,55.67
2022-11-24T05:07:27.272Z,56.42
2022-11-24T05:07:59.900Z,52.97
2022-11-24T05:08:31.610Z,54.08
2022-11-24T05:09:03.663Z,56.90
2022-11-24T05:09:59.359Z,57.22
2022-11-24T05:10:37.267Z,52.80
2022-11-24T05:11:08.788Z,54.25
2022-11-24T05:11:42.793Z,57.05
2022-11-24T05:12:14.334Z,54.08
2022-11-24T05:12:51.071Z,56.45
2022-11-24T05:13:23.020Z,56.08
2022-11-24T05:13:54.577Z,54.22
2022-11-24T05:14:27.968Z,52.70
2022-11-24T05:15:03.800Z,56.13
2022-11-24T05:15:37.441Z,54.75
2022-11-24T05:16:09.425Z,51.40
2022-11-24T05:16:41.017Z,57.70
2022-11-24T05:17:12.586Z,53.83
2022-11-24T05:17:44.121Z,53.90
2022-11-24T05:18:16.671Z,55.55
2022-11-24T05:18:48.300Z,58.70
2022-11-24T05:19:20.112Z,53.55
2022-11-24T05:19:51.665Z,57.92
2022-11-24T05:20:23.498Z,57.60
2022-11-24T05:20:55.358Z,60.75
2022-11-24T05:21:27.948Z,58.20
2022-11-24T05:21:59.492Z,58.08
2022-11-24T05:22:31.822Z,54.58
2022-11-24T05:23:05.021Z,57.83
2022-11-24T05:23:36.607Z,55.30
2022-11-24T05:24:08.383Z,57.15
2022-11-24T05:24:39.987Z,57.33
2022-11-24T05:25:11.769Z,54.45
2022-11-24T05:25:47.478Z,52.45
2022-11-24T05:26:19.523Z,51.17
2022-11-24T05:26:51.138Z,53.08
2022-11-24T05:27:22.811Z,53.83
2022-11-24T05:27:54.389Z,53.10
2022-11-24T05:28:25.972Z,52.95
2022-11-24T05:28:57.510Z,50.15
2022-11-24T05:29:29.075Z,51.85
2022-11-24T05:30:00.683Z,51.67
2022-11-24T05:30:32.766Z,57.60
2022-11-24T05:31:05.024Z,52.17
2022-11-24T05:31:36.620Z,56.30
2022-11-24T05:32:08.223Z,57.88
2022-11-24T05:32:39.896Z,52.97
2022-11-24T05:33:19.081Z,51.92
2022-11-24T05:33:50.895Z,53.55
2022-11-24T05:34:22.481Z,54.92
2022-11-24T05:34:54.720Z,52.75
2022-11-24T05:35:26.335Z,55.42
2022-11-24T05:36:01.722Z,48.92
2022-11-24T05:36:51.821Z,54.55
2022-11-24T05:37:25.491Z,46.60
2022-11-24T05:37:58.658Z,54.20
2022-11-24T05:38:30.754Z,52.78
2022-11-24T05:39:02.300Z,53.60
2022-11-24T05:39:38.080Z,49.05
2022-11-24T05:40:09.859Z,48.58
2022-11-24T05:40:42.078Z,51.20
2022-11-24T05:41:13.623Z,54.25
2022-11-24T05:41:45.544Z,53.88
2022-11-24T05:42:35.679Z,51.40
2022-11-24T05:43:14.812Z,54.17
2022-11-24T05:43:46.359Z,45.78
2022-11-24T05:44:17.899Z,50.97
2022-11-24T05:44:49.551Z,52.88
2022-11-24T05:45:22.392Z,52.97
2022-11-24T05:45:53.959Z,49.80
2022-11-24T05:46:25.556Z,50.25
2022-11-24T05:46:57.223Z,48.25
2022-11-24T05:47:28.946Z,51.33
2022-11-24T05:48:08.882Z,51.85
2022-11-24T05:48:40.466Z,49.47
2022-11-24T05:49:12.058Z,48.72
2022-11-24T05:49:43.730Z,46.40
2022-11-24T05:50:18.019Z,50.78
2022-11-24T05:50:56.749Z,51.03
2022-11-24T05:51:28.342Z,49.88
2022-11-24T05:51:59.926Z,47.13
2022-11-24T05:52:31.539Z,46.70
2022-11-24T05:53:05.255Z,51.20
2022-11-24T05:53:36.878Z,46.30
2022-11-24T05:54:08.476Z,47.60
2022-11-24T05:54:40.088Z,49.65
2022-11-24T05:55:12.621Z,48.33
2022-11-24T05:55:44.222Z,49.83
2022-11-24T05:56:15.830Z,49.53
2022-11-24T05:56:47.378Z,51.15
2022-11-24T05:57:19.223Z,47.42
2022-11-24T05:57:58.349Z,50.70
2022-11-24T05:58:30.051Z,48.78
2022-11-24T05:59:06.657Z,46.63
2022-11-24T05:59:41.130Z,50.80
2022-11-24T06:00:13.938Z,45.65
2022-11-24T06:00:45.734Z,47.80
2022-11-24T06:01:17.262Z,47.10
2022-11-24T06:01:48.937Z,49.38
2022-11-24T06:02:20.767Z,51.83
2022-11-24T06:02:52.435Z,47.95
2022-11-24T06:03:24.169Z,43.20
2022-11-24T06:03:55.767Z,47.47
2022-11-24T06:04:27.389Z,50.30
2022-11-24T06:04:58.927Z,44.55
2022-11-24T06:05:30.590Z,48.45
2022-11-24T06:06:03.243Z,46.42
2022-11-24T06:06:34.826Z,48.28
2022-11-24T06:07:11.281Z,48.25
2022-11-24T06:07:42.882Z,47.90
2022-11-24T06:08:15.144Z,50.33
2022-11-24T06:08:46.683Z,45.28
2022-11-24T06:09:18.284Z,48.03
2022-11-24T06:09:49.908Z,46.03
2022-11-24T06:10:24.044Z,46.80
2022-11-24T06:11:17.188Z,49.70
2022-11-24T06:11:49.143Z,46.38
2022-11-24T06:12:20.771Z,46.88
2022-11-24T06:12:52.949Z,46.25
2022-11-24T06:13:24.615Z,49.63
2022-11-24T06:13:56.398Z,47.17
2022-11-24T06:14:28.199Z,48.65
2022-11-24T06:14:59.751Z,46.53
2022-11-24T06:15:31.282Z,52.80
2022-11-24T06:16:02.972Z,49.83
2022-11-24T06:16:34.605Z,50.47
2022-11-24T06:17:06.503Z,48.53
2022-11-24T06:17:38.629Z,43.47
2022-11-24T06:18:10.215Z,47.28
2022-11-24T06:18:41.818Z,43.53
2022-11-24T06:19:13.534Z,46.40
2022-11-24T06:19:47.938Z,44.78
2022-11-24T06:20:19.611Z,52.53
2022-11-24T06:21:09.501Z,41.97
2022-11-24T06:21:42.119Z,46.22
2022-11-24T06:22:13.693Z,44.60
2022-11-24T06:22:45.274Z,43.83
2022-11-24T06:23:16.868Z,48.90
2022-11-24T06:23:48.912Z,46.50
2022-11-24T06:24:20.711Z,47.10
2022-11-24T06:24:52.322Z,50.00
2022-11-24T06:25:23.910Z,46.83
2022-11-24T06:25:58.527Z,45.45
2022-11-24T06:26:30.063Z,48.40
2022-11-24T06:27:01.672Z,45.75
2022-11-24T06:27:33.264Z,48.13
2022-11-24T06:28:05.276Z,46.25
2022-11-24T06:28:36.929Z,46.80
2022-11-24T06:29:08.536Z,45.10
2022-11-24T06:29:40.242Z,46.92
2022-11-24T06:30:12.625Z,42.63
2022-11-24T06:30:44.154Z,45.55
2022-11-24T06:31:15.912Z,45.75
2022-11-24T06:31:47.560Z,45.30
2022-11-24T06:32:19.401Z,45.00
2022-11-24T06:32:54.991Z,45.67
2022-11-24T06:33:26.659Z,47.25
2022-11-24T06:33:59.246Z,46.05
2022-11-24T06:34:30.993Z,43.47
2022-11-24T06:35:02.843Z,45.00
2022-11-24T06:35:34.443Z,43.90
2022-11-24T06:36:08.639Z,45.30
2022-11-24T06:36:40.611Z,52.40
2022-11-24T06:37:12.207Z,46.70
2022-11-24T06:37:43.888Z,49.20
2022-11-24T06:38:20.110Z,48.55
2022-11-24T06:38:55.736Z,45.88
2022-11-24T06:39:27.495Z,45.85
2022-11-24T06:39:59.091Z,39.53
2022-11-24T06:40:30.659Z,45.63
2022-11-24T06:41:08.028Z,43.17
2022-11-24T06:41:39.623Z,46.72
2022-11-24T06:42:11.199Z,44.10
2022-11-24T06:42:42.744Z,51.50
2022-11-24T06:43:16.410Z,45.53
2022-11-24T06:43:48.083Z,47.28
2022-11-24T06:44:19.734Z,47.83
2022-11-24T06:44:51.379Z,44.63
2022-11-24T06:45:23.511Z,44.70
2022-11-24T06:45:55.782Z,42.83
2022-11-24T06:46:27.406Z,47.92
2022-11-24T06:46:58.991Z,47.45
2022-11-24T06:47:30.575Z,45.63
2022-11-24T06:48:02.222Z,47.25
2022-11-24T06:48:34.022Z,48.97
2022-11-24T06:49:05.636Z,41.15
2022-11-24T06:49:37.188Z,47.33
2022-11-24T06:50:10.612Z,45.40
2022-11-24T06:50:42.191Z,42.65
2022-11-24T06:51:13.892Z,47.47
2022-11-24T06:51:45.531Z,47.60
2022-11-24T06:52:17.080Z,48.33
2022-11-24T06:52:48.863Z,46.25
2022-11-24T06:53:20.423Z,44.38
2022-11-24T06:53:52.055Z,46.00
2022-11-24T06:54:23.771Z,48.22
2022-11-24T06:54:55.433Z,46.38
2022-11-24T06:55:27.136Z,44.17
2022-11-24T06:56:00.685Z,44.85
2022-11-24T06:56:32.223Z,46.95
2022-11-24T06:57:03.839Z,49.85
2022-11-24T06:57:35.439Z,46.60
2022-11-24T06:58:07.081Z,46.05
2022-11-24T06:58:46.612Z,42.95
2022-11-24T06:59:20.581Z,44.80
2022-11-24T06:59:52.178Z,46.88
2022-11-24T07:00:23.831Z,52.67
2022-11-24T07:00:55.502Z,50.50
2022-11-24T07:01:29.402Z,49.85
2022-11-24T07:02:00.984Z,48.85
2022-11-24T07:02:32.636Z,49.78
2022-11-24T07:03:05.288Z,47.90
2022-11-24T07:03:37.000Z,52.35
2022-11-24T07:04:08.848Z,51.40
2022-11-24T07:04:40.422Z,49.38
2022-11-24T07:05:12.006Z,46.85
2022-11-24T07:05:44.062Z,47.20
2022-11-24T07:06:17.356Z,49.50